createdAt,value
2019-04-23T20:32:07.158Z,43.45
2019-04-23T20:33:40.930Z,43.61
2019-04-23T20:35:46.922Z,43.62
2019-04-23T20:38:33.414Z,43.72
2019-04-23T20:40:48.338Z,43.96
2019-04-23T20:43:34.583Z,44.09
2019-04-23T20:45:46.949Z,44.37
2019-04-23T20:48:37.208Z,44.33
2019-04-23T20:50:41.010Z,44.20
2019-04-23T20:53:03.571Z,44.14
2019-04-23T20:55:54.648Z,44.05
2019-04-23T20:58:14.194Z,44.00
2019-04-23T21:01:22.276Z,44.12
2019-04-23T21:03:49.122Z,44.11
2019-04-23T21:06:19.392Z,44.16
2019-04-23T21:11:18.584Z,44.07
2019-04-23T21:16:13.112Z,44.11
2019-04-23T21:18:44.291Z,44.09
2019-04-23T21:23:53.665Z,43.96
2019-04-23T21:26:01.927Z,43.90
2019-04-23T21:28:44.447Z,43.93
2019-04-23T21:31:15.644Z,43.90
2019-04-23T21:33:59.629Z,43.84
2019-04-23T21:46:46.903Z,43.78
2019-04-23T21:54:07.949Z,44.25
2019-04-23T21:56:44.475Z,44.43
2019-04-23T21:59:22.787Z,44.54
2019-04-23T22:01:44.765Z,44.66
2019-04-23T22:04:15.091Z,44.68
2019-04-23T22:06:43.405Z,44.91
2019-04-23T22:09:15.309Z,44.89
2019-04-23T22:11:56.904Z,44.85
2019-04-23T22:14:10.288Z,44.85
2019-04-23T22:16:55.766Z,44.82
2019-04-23T22:21:47.204Z,44.86
2019-04-23T22:26:35.348Z,44.92
2019-04-23T22:29:14.269Z,44.94
2019-04-23T22:34:08.727Z,45.16
2019-04-23T22:36:54.871Z,45.20
2019-04-23T22:39:07.734Z,45.26
2019-04-23T22:46:48.113Z,45.41
2019-04-23T22:49:20.066Z,45.47
2019-04-23T22:56:53.638Z,45.98
2019-04-23T22:59:26.650Z,46.05
2019-04-23T23:06:57.330Z,46.38
2019-04-23T23:09:40.653Z,46.57
2019-04-23T23:11:49.046Z,46.49
2019-04-23T23:16:44.981Z,46.69
2019-04-23T23:21:59.427Z,47.56
2019-04-23T23:26:49.694Z,47.27
2019-04-23T23:29:06.344Z,47.34
2019-04-23T23:31:42.287Z,47.42
2019-04-23T23:34:09.999Z,47.56
2019-04-23T23:36:47.633Z,47.58
2019-04-23T23:39:21.161Z,47.55
2019-04-23T23:41:44.874Z,47.62
2019-04-23T23:44:28.448Z,47.62
2019-04-23T23:49:03.297Z,47.60
2019-04-23T23:51:40.597Z,47.64
2019-04-23T23:54:08.234Z,47.57
2019-04-23T23:57:01.771Z,47.48
